createdAt,value
2023-02-05T00:04:45.545Z,77.11
2023-02-05T00:10:07.548Z,78.05
2023-02-05T00:15:29.253Z,77.74
2023-02-05T00:20:51.020Z,77.70
2023-02-05T00:26:14.224Z,78.31
2023-02-05T00:31:36.050Z,78.16
2023-02-05T00:36:57.880Z,77.80
2023-02-05T00:42:19.620Z,78.15
2023-02-05T00:47:41.351Z,77.93
2023-02-05T00:53:03.153Z,78.69
2023-02-05T00:58:25.006Z,78.65
2023-02-05T01:03:46.694Z,77.92
2023-02-05T01:09:08.382Z,77.14
2023-02-05T01:14:30.106Z,78.05
2023-02-05T01:19:52.372Z,78.86
2023-02-05T01:25:14.056Z,78.46
2023-02-05T01:30:36.289Z,78.33
2023-02-05T01:35:58.003Z,79.23
2023-02-05T01:41:19.987Z,78.69
2023-02-05T01:46:46.632Z,78.98
2023-02-05T01:52:15.375Z,79.59
2023-02-05T01:57:37.829Z,79.41
2023-02-05T02:03:00.296Z,79.34
2023-02-05T02:08:22.397Z,79.55
2023-02-05T02:13:47.115Z,80.09
2023-02-05T02:19:23.847Z,78.62
2023-02-05T02:24:57.492Z,79.55
2023-02-05T02:30:37.364Z,79.41
2023-02-05T02:36:06.464Z,80.41
2023-02-05T02:41:57.454Z,80.75
2023-02-05T02:47:23.691Z,80.52
2023-02-05T02:52:47.600Z,79.70
2023-02-05T02:58:15.981Z,80.55
2023-02-05T03:03:46.240Z,80.61
2023-02-05T03:09:18.014Z,80.42
2023-02-05T03:14:39.761Z,80.50
2023-02-05T03:20:12.868Z,79.64
2023-02-05T03:25:34.812Z,78.77
2023-02-05T03:31:03.564Z,79.49
2023-02-05T03:36:34.384Z,79.46
2023-02-05T03:42:13.748Z,78.62
2023-02-05T03:47:55.260Z,79.28
2023-02-05T03:53:25.937Z,80.59
2023-02-05T03:58:51.484Z,81.30
2023-02-05T04:04:13.814Z,80.95
2023-02-05T04:09:35.551Z,80.39
2023-02-05T04:14:57.251Z,80.55
2023-02-05T04:20:19.121Z,80.29
2023-02-05T04:25:40.963Z,81.18
2023-02-05T04:31:02.840Z,81.56
2023-02-05T04:36:24.562Z,81.84
2023-02-05T04:41:46.230Z,82.36
2023-02-05T04:47:07.970Z,82.35
2023-02-05T04:52:29.808Z,82.59
2023-02-05T04:57:52.723Z,82.16
2023-02-05T05:03:14.562Z,82.43
2023-02-05T05:08:36.323Z,82.55
2023-02-05T05:13:58.201Z,83.00
2023-02-05T05:19:19.867Z,83.18
2023-02-05T05:24:41.548Z,83.32
2023-02-05T05:30:03.602Z,83.46
2023-02-05T05:35:25.462Z,83.70
2023-02-05T05:41:06.068Z,82.55
2023-02-05T05:46:27.856Z,82.27
2023-02-05T05:51:49.591Z,81.73
2023-02-05T05:57:11.297Z,83.36
2023-02-05T06:02:33.130Z,82.45
2023-02-05T06:07:54.840Z,82.67
2023-02-05T06:13:16.538Z,82.35
2023-02-05T06:18:38.399Z,82.02
2023-02-05T06:24:00.127Z,81.77
2023-02-05T06:29:21.920Z,81.41
2023-02-05T06:34:43.659Z,81.50
2023-02-05T06:40:05.702Z,81.54
2023-02-05T06:45:27.459Z,82.13
2023-02-05T06:50:49.112Z,82.65
2023-02-05T06:56:10.884Z,83.21
2023-02-05T07:01:33.006Z,82.78
2023-02-05T07:06:54.907Z,81.67
2023-02-05T07:12:16.768Z,82.29
2023-02-05T07:17:39.379Z,81.40
2023-02-05T07:23:01.183Z,81.65
2023-02-05T07:28:22.897Z,81.75
2023-02-05T07:33:45.945Z,80.74
2023-02-05T07:39:07.641Z,80.66
2023-02-05T07:44:29.429Z,81.16
2023-02-05T07:49:51.098Z,80.56
2023-02-05T07:55:12.816Z,81.28
2023-02-05T08:00:34.959Z,81.13
2023-02-05T08:05:56.939Z,81.04
2023-02-05T08:11:19.087Z,80.71
2023-02-05T08:16:40.836Z,80.70
2023-02-05T08:22:02.564Z,80.09
2023-02-05T08:27:24.235Z,80.27
2023-02-05T08:32:50.078Z,79.87
2023-02-05T08:38:11.756Z,80.52
2023-02-05T08:43:33.441Z,80.24
2023-02-05T08:48:55.120Z,80.03
2023-02-05T08:54:17.107Z,79.63
2023-02-05T08:59:38.827Z,79.34
2023-02-05T09:05:08.477Z,79.86
2023-02-05T09:10:31.056Z,80.18
2023-02-05T09:15:52.972Z,81.07
2023-02-05T09:21:14.883Z,80.88
2023-02-05T09:26:37.334Z,81.36
2023-02-05T09:31:59.070Z,84.73
2023-02-05T09:37:20.859Z,86.19
2023-02-05T09:43:11.168Z,88.06
2023-02-05T09:49:09.721Z,89.51
2023-02-05T09:54:36.460Z,90.87
2023-02-05T09:59:58.528Z,91.07
2023-02-05T10:05:22.989Z,90.08
2023-02-05T10:10:48.610Z,89.76
2023-02-05T10:16:24.776Z,90.37
2023-02-05T10:21:56.168Z,91.62
2023-02-05T10:27:35.474Z,91.92
2023-02-05T10:33:03.445Z,92.40
2023-02-05T10:38:28.432Z,92.65
2023-02-05T10:44:08.985Z,92.69
2023-02-05T10:49:42.694Z,93.46
2023-02-05T10:55:04.725Z,93.34
2023-02-05T11:00:26.602Z,93.85
2023-02-05T11:05:49.923Z,93.63
2023-02-05T11:11:31.885Z,93.74
2023-02-05T11:16:53.919Z,94.64
2023-02-05T11:22:27.345Z,94.78
2023-02-05T11:27:57.453Z,95.59
2023-02-05T11:33:21.911Z,95.80
2023-02-05T11:38:50.461Z,94.64
2023-02-05T11:44:29.139Z,95.06
2023-02-05T11:49:52.130Z,94.93
2023-02-05T11:55:29.648Z,94.27
2023-02-05T12:00:54.123Z,94.41
2023-02-05T12:06:22.807Z,95.28
2023-02-05T12:12:01.045Z,94.95
2023-02-05T12:17:31.560Z,95.50
2023-02-05T12:23:12.435Z,94.23
2023-02-05T12:28:54.590Z,95.70
2023-02-05T12:34:34.642Z,96.78
2023-02-05T12:40:06.778Z,97.11
2023-02-05T12:45:44.208Z,95.53
2023-02-05T12:51:22.140Z,98.37
2023-02-05T12:57:08.257Z,94.66
2023-02-05T13:02:41.804Z,92.92
2023-02-05T13:08:15.659Z,94.93
2023-02-05T13:13:50.520Z,95.20
2023-02-05T13:19:30.756Z,95.49
2023-02-05T13:25:16.855Z,97.37
2023-02-05T13:30:46.346Z,97.55
2023-02-05T13:36:29.380Z,95.95
2023-02-05T13:42:26.082Z,97.73
2023-02-05T13:48:12.695Z,95.30
2023-02-05T13:53:47.301Z,95.40
2023-02-05T13:59:36.694Z,95.21
2023-02-05T14:05:00.592Z,94.01
2023-02-05T14:10:31.727Z,93.80
2023-02-05T14:15:54.049Z,93.57
2023-02-05T14:21:30.890Z,93.46
2023-02-05T14:26:57.507Z,93.09
2023-02-05T14:32:28.523Z,93.49
2023-02-05T14:37:50.932Z,92.76
2023-02-05T14:43:23.022Z,92.68
2023-02-05T14:48:47.362Z,93.94
2023-02-05T14:54:21.265Z,94.17
2023-02-05T14:59:53.065Z,92.72
2023-02-05T15:05:29.511Z,93.42
2023-02-05T15:10:57.198Z,94.55
2023-02-05T15:16:21.015Z,92.70
2023-02-05T15:21:48.116Z,94.42
2023-02-05T15:27:21.434Z,93.88
2023-02-05T15:32:49.763Z,94.61
2023-02-05T15:38:43.830Z,94.58
2023-02-05T15:44:20.038Z,94.09
2023-02-05T15:49:48.498Z,94.17
2023-02-05T15:55:18.816Z,94.00
2023-02-05T16:00:44.983Z,94.60
2023-02-05T16:06:17.508Z,95.50
2023-02-05T16:11:41.014Z,96.22
2023-02-05T16:17:27.797Z,95.70
2023-02-05T16:22:55.584Z,96.39
2023-02-05T16:28:29.163Z,96.56
2023-02-05T16:33:56.244Z,95.41
2023-02-05T16:39:27.640Z,97.23
2023-02-05T16:44:49.554Z,96.43
2023-02-05T16:50:42.501Z,96.42
2023-02-05T16:56:23.291Z,96.66
2023-02-05T17:01:45.933Z,97.92
2023-02-05T17:07:18.762Z,96.62
2023-02-05T17:12:46.519Z,96.13
2023-02-05T17:18:27.672Z,95.83
2023-02-05T17:23:51.013Z,97.06
2023-02-05T17:29:15.658Z,96.30
2023-02-05T17:34:37.373Z,96.59
2023-02-05T17:39:59.061Z,96.67
2023-02-05T17:45:25.743Z,97.95
2023-02-05T17:50:49.746Z,98.51
2023-02-05T17:56:13.622Z,97.35
2023-02-05T18:01:35.396Z,96.97
2023-02-05T18:06:57.578Z,94.80
2023-02-05T18:12:19.296Z,95.23
2023-02-05T18:17:41.284Z,95.12
2023-02-05T18:23:03.712Z,95.46
2023-02-05T18:28:25.851Z,94.11
2023-02-05T18:33:49.093Z,93.75
2023-02-05T18:39:10.937Z,93.01
2023-02-05T18:44:33.268Z,90.77
2023-02-05T18:49:55.081Z,90.48
2023-02-05T18:55:16.926Z,92.06
2023-02-05T19:00:38.794Z,90.77
2023-02-05T19:06:05.074Z,90.96
2023-02-05T19:11:28.370Z,91.76
2023-02-05T19:16:50.284Z,91.10
2023-02-05T19:22:12.438Z,90.50
2023-02-05T19:27:34.196Z,91.51
2023-02-05T19:32:56.032Z,91.69
2023-02-05T19:38:18.195Z,92.70
2023-02-05T19:43:43.126Z,91.79
2023-02-05T19:49:07.660Z,90.51
2023-02-05T19:54:30.348Z,89.46
2023-02-05T19:59:52.098Z,92.28
2023-02-05T20:05:13.869Z,90.90
2023-02-05T20:10:35.843Z,90.38
2023-02-05T20:16:02.566Z,89.70
2023-02-05T20:21:26.499Z,91.83
2023-02-05T20:26:48.410Z,90.94
2023-02-05T20:32:10.310Z,93.06
2023-02-05T20:37:36.667Z,90.29
2023-02-05T20:42:58.345Z,90.16
2023-02-05T20:48:20.124Z,92.18
2023-02-05T20:53:42.578Z,92.76
2023-02-05T20:59:06.884Z,92.36
2023-02-05T21:04:28.598Z,91.60
2023-02-05T21:09:50.309Z,90.58
2023-02-05T21:15:11.991Z,89.97
2023-02-05T21:20:33.871Z,89.24
2023-02-05T21:25:55.800Z,90.36
2023-02-05T21:31:17.603Z,90.45
2023-02-05T21:36:39.502Z,91.37
2023-02-05T21:42:01.255Z,91.47
2023-02-05T21:47:23.029Z,91.70
2023-02-05T21:52:44.753Z,91.45
2023-02-05T21:58:06.457Z,90.18
2023-02-05T22:03:28.514Z,90.46
2023-02-05T22:08:50.980Z,91.56
2023-02-05T22:14:13.195Z,90.55
2023-02-05T22:19:35.889Z,89.98
2023-02-05T22:24:57.578Z,90.70
2023-02-05T22:30:19.927Z,90.26
2023-02-05T22:35:41.646Z,89.21
2023-02-05T22:41:11.567Z,90.24
2023-02-05T22:46:38.077Z,90.07
2023-02-05T22:51:59.799Z,90.85
2023-02-05T22:57:21.451Z,89.97
2023-02-05T23:02:43.165Z,90.33
2023-02-05T23:08:05.870Z,90.34
2023-02-05T23:13:27.543Z,90.20
2023-02-05T23:18:50.126Z,90.23
2023-02-05T23:24:11.992Z,91.35
2023-02-05T23:29:33.712Z,90.89
2023-02-05T23:34:55.461Z,90.37
2023-02-05T23:40:17.320Z,91.06
2023-02-05T23:45:39.108Z,90.63
2023-02-05T23:51:01.231Z,90.54
2023-02-05T23:56:23.086Z,90.49
